Time;durP1;ratioP1;P1;durP2;ratioP2;P2;SDS_P1;SDS_P2;PMS_P1;PMS_P2;Temp;Humidity;BMP_temperature;BMP_pressure;BME280_temperature;BME280_humidity;BME280_pressure;Samples;Min_cycle;Max_cycle;Signal;HPM_P1;HPM_P2
2022/02/25 00:00:42;;;;;;;4.50;1.50;;;;;;;3.47;100.00;99783.53;4955115;29;20197;-79
2022/02/25 00:03:09;;;;;;;1.95;1.42;;;;;;;3.67;100.00;99775.03;4955403;29;20189;-78
2022/02/25 00:05:39;;;;;;;5.75;2.40;;;;;;;3.59;100.00;99779.69;4955694;29;20205;-79
2022/02/25 00:08:05;;;;;;;3.50;1.70;;;;;;;3.56;100.00;99785.09;4955882;29;20273;-79
2022/02/25 00:10:34;;;;;;;6.95;3.60;;;;;;;3.66;100.00;99793.69;4953857;28;20196;-80
2022/02/25 00:13:00;;;;;;;6.35;1.55;;;;;;;3.67;100.00;99790.13;4962411;28;20197;-80
2022/02/25 00:15:27;;;;;;;2.20;1.50;;;;;;;3.74;100.00;99792.59;4955662;28;20269;-79
2022/02/25 00:17:54;;;;;;;6.70;2.17;;;;;;;3.74;100.00;99797.91;4954606;28;20205;-79
2022/02/25 00:20:21;;;;;;;5.40;1.90;;;;;;;3.62;100.00;99802.69;4954964;29;20251;-79
2022/02/25 00:22:48;;;;;;;5.78;1.88;;;;;;;3.48;100.00;99800.38;4955354;29;20195;-79
2022/02/25 00:25:14;;;;;;;4.65;2.00;;;;;;;3.57;100.00;99807.25;4955186;29;20615;-79
2022/02/25 00:27:44;;;;;;;4.30;1.60;;;;;;;3.74;100.00;99805.03;4956464;28;20293;-79
2022/02/25 00:30:12;;;;;;;7.90;1.85;;;;;;;3.71;100.00;99816.66;4959841;28;20194;-79
2022/02/25 00:32:40;;;;;;;6.68;1.80;;;;;;;3.72;100.00;99812.19;4955773;28;20228;-79
2022/02/25 00:35:07;;;;;;;5.28;1.95;;;;;;;3.52;100.00;99824.22;4963308;28;20211;-79
2022/02/25 00:37:34;;;;;;;6.97;2.10;;;;;;;3.52;100.00;99826.88;4963751;28;20205;-79
2022/02/25 00:40:02;;;;;;;5.22;1.58;;;;;;;3.55;100.00;99821.50;4958894;28;21733;-79
2022/02/25 00:42:28;;;;;;;4.78;2.28;;;;;;;3.45;100.00;99829.75;4959429;28;20230;-80
2022/02/25 00:44:57;;;;;;;7.03;1.90;;;;;;;3.42;100.00;99837.84;4951572;28;20194;-79
2022/02/25 00:47:25;;;;;;;5.20;1.63;;;;;;;3.40;100.00;99837.84;4960788;28;20232;-80
2022/02/25 00:49:51;;;;;;;4.60;1.40;;;;;;;3.30;100.00;99836.31;4957119;28;20193;-80
2022/02/25 00:52:18;;;;;;;8.40;2.00;;;;;;;3.19;100.00;99830.38;4964920;28;20225;-80
2022/02/25 00:54:45;;;;;;;5.68;1.70;;;;;;;3.38;100.00;99836.16;4957022;28;20320;-80
2022/02/25 00:57:12;;;;;;;3.38;1.90;;;;;;;3.35;100.00;99845.09;4947980;28;20193;-80
2022/02/25 00:59:39;;;;;;;4.45;2.13;;;;;;;3.22;100.00;99843.63;4956558;28;20205;-80
2022/02/25 01:02:07;;;;;;;3.95;2.00;;;;;;;3.24;100.00;99847.16;4961338;28;20204;-80
2022/02/25 01:04:34;;;;;;;5.65;2.20;;;;;;;3.37;100.00;99848.59;4959733;28;20285;-80
2022/02/25 01:07:00;;;;;;;4.90;2.00;;;;;;;3.48;100.00;99854.53;4961663;28;20264;-80
2022/02/25 01:09:27;;;;;;;5.03;1.83;;;;;;;3.40;100.00;99856.50;4963564;28;20275;-81
2022/02/25 01:11:54;;;;;;;8.02;2.45;;;;;;;3.39;100.00;99857.38;4963803;28;20194;-81
2022/02/25 01:14:20;;;;;;;8.98;2.50;;;;;;;3.37;100.00;99866.34;4962238;28;20190;-80
2022/02/25 01:16:47;;;;;;;14.73;2.83;;;;;;;3.37;100.00;99861.00;4966375;28;20560;-79
2022/02/25 01:19:16;;;;;;;5.00;2.38;;;;;;;3.34;100.00;99869.94;4953366;29;20207;-81
2022/02/25 01:21:42;;;;;;;6.35;2.35;;;;;;;3.32;100.00;99870.00;4955342;29;20249;-81
2022/02/25 01:24:09;;;;;;;4.32;2.00;;;;;;;3.33;100.00;99871.75;4941666;28;20717;-81
2022/02/25 01:26:36;;;;;;;8.93;2.30;;;;;;;3.44;100.00;99870.63;4957418;28;20284;-80
2022/02/25 01:29:02;;;;;;;6.22;1.90;;;;;;;3.40;100.00;99869.81;4962170;28;20198;-80
2022/02/25 01:31:29;;;;;;;5.57;2.30;;;;;;;3.46;100.00;99872.31;4962984;28;20228;-80
2022/02/25 01:33:56;;;;;;;10.18;2.63;;;;;;;3.50;100.00;99881.97;4961586;28;20633;-80
2022/02/25 01:36:24;;;;;;;5.85;2.40;;;;;;;3.70;100.00;99881.47;4963640;28;20315;-80
2022/02/25 01:38:51;;;;;;;8.52;2.28;;;;;;;3.47;100.00;99882.03;4950602;28;20787;-79
2022/02/25 01:41:17;;;;;;;5.13;2.42;;;;;;;3.45;100.00;99883.88;4956861;28;20203;-82
2022/02/25 01:43:44;;;;;;;11.75;2.08;;;;;;;3.49;100.00;99882.88;4955295;28;20209;-81
2022/02/25 01:46:11;;;;;;;5.63;1.98;;;;;;;3.52;100.00;99881.94;4958441;28;20214;-81
2022/02/25 01:48:38;;;;;;;10.20;3.17;;;;;;;3.66;100.00;99887.78;4964392;28;20282;-80
2022/02/25 01:51:05;;;;;;;6.25;2.17;;;;;;;3.47;100.00;99884.72;4954869;28;20204;-80
2022/02/25 01:53:33;;;;;;;4.70;1.60;;;;;;;3.36;100.00;99888.56;4953877;28;20200;-80
2022/02/25 01:56:00;;;;;;;10.00;1.90;;;;;;;3.59;100.00;99885.31;4956569;28;20193;-79
2022/02/25 01:58:28;;;;;;;4.53;1.88;;;;;;;3.55;100.00;99890.72;4953751;28;20624;-79
2022/02/25 02:00:56;;;;;;;5.55;2.47;;;;;;;3.53;100.00;99892.56;4952159;28;20234;-79
2022/02/25 02:03:23;;;;;;;12.32;2.42;;;;;;;3.48;100.00;99889.13;4953387;28;20198;-81
2022/02/25 02:05:50;;;;;;;7.25;2.65;;;;;;;3.46;100.00;99890.06;4962986;28;20668;-80
2022/02/25 02:08:16;;;;;;;6.78;2.10;;;;;;;3.53;100.00;99892.56;4971171;28;20194;-80
2022/02/25 02:10:44;;;;;;;9.93;2.20;;;;;;;3.56;100.00;99891.59;4959278;28;20196;-80
2022/02/25 02:13:13;;;;;;;9.15;3.80;;;;;;;3.69;100.00;99893.03;4961988;28;20265;-80
2022/02/25 02:15:39;;;;;;;5.25;2.40;;;;;;;3.58;100.00;99896.91;4968973;28;20204;-80
2022/02/25 02:18:07;;;;;;;4.97;2.40;;;;;;;3.71;100.00;99901.00;4955905;28;20200;-80
2022/02/25 02:20:34;;;;;;;6.75;2.75;;;;;;;3.64;100.00;99897.63;4963844;28;20224;-80
2022/02/25 02:23:02;;;;;;;5.28;3.13;;;;;;;3.83;100.00;99899.81;4961794;28;20553;-79
2022/02/25 02:25:29;;;;;;;7.20;2.53;;;;;;;3.63;100.00;99898.53;4957502;28;20201;-81
2022/02/25 02:30:40;;;;;;;9.27;2.40;;;;;;;3.52;100.00;99904.09;4956704;28;20283;-81
2022/02/25 02:33:07;;;;;;;7.22;1.83;;;;;;;3.48;100.00;99905.13;4953089;28;20285;-80
2022/02/25 02:35:34;;;;;;;9.00;2.38;;;;;;;3.57;100.00;99898.66;4960905;28;20282;-79
2022/02/25 02:38:02;;;;;;;8.07;2.15;;;;;;;3.49;100.00;99898.84;4964221;28;20194;-81
2022/02/25 02:40:29;;;;;;;8.02;2.70;;;;;;;3.40;100.00;99896.44;4958570;28;20686;-81
2022/02/25 02:42:55;;;;;;;4.10;2.30;;;;;;;3.38;100.00;99895.59;4955271;28;20202;-80
2022/02/25 02:45:22;;;;;;;4.35;2.08;;;;;;;3.29;100.00;99894.00;4954428;28;20290;-81
2022/02/25 02:47:49;;;;;;;11.13;2.88;;;;;;;3.33;100.00;99897.50;4959209;28;20193;-80
2022/02/25 02:50:16;;;;;;;4.05;2.35;;;;;;;3.39;100.00;99899.97;4951622;28;20198;-80
2022/02/25 02:52:42;;;;;;;9.00;2.30;;;;;;;3.38;100.00;99903.56;4966619;28;20283;-81
2022/02/25 02:55:10;;;;;;;7.00;2.17;;;;;;;3.26;100.00;99899.41;4955466;28;20255;-80
2022/02/25 02:57:37;;;;;;;6.10;1.90;;;;;;;3.28;100.00;99902.91;4951865;28;20187;-80
2022/02/25 03:00:05;;;;;;;3.90;2.33;;;;;;;3.32;100.00;99906.38;4968670;28;20671;-80
2022/02/25 03:02:32;;;;;;;9.05;2.50;;;;;;;3.23;100.00;99903.94;4968892;28;20271;-79
2022/02/25 03:04:59;;;;;;;6.90;2.28;;;;;;;3.15;100.00;99906.78;4967305;28;20200;-80
2022/02/25 03:07:25;;;;;;;4.88;2.05;;;;;;;3.15;100.00;99909.44;4969356;28;20197;-79
2022/02/25 03:09:52;;;;;;;9.50;2.40;;;;;;;3.11;100.00;99915.72;4964938;28;20197;-80
2022/02/25 03:12:20;;;;;;;4.00;1.60;;;;;;;3.12;100.00;99914.81;4962504;28;20190;-80
2022/02/25 03:14:47;;;;;;;7.22;2.35;;;;;;;3.10;100.00;99921.97;4965379;28;20649;-80
2022/02/25 03:17:14;;;;;;;5.55;2.20;;;;;;;3.10;100.00;99914.00;4962700;28;20682;-79
2022/02/25 03:19:41;;;;;;;11.65;2.13;;;;;;;2.99;100.00;99906.25;4954541;28;20211;-80
2022/02/25 03:22:08;;;;;;;15.77;4.22;;;;;;;2.96;100.00;99913.41;4962787;28;20233;-81
2022/02/25 03:24:35;;;;;;;11.07;2.22;;;;;;;2.93;100.00;99919.66;4963480;28;20291;-81
2022/02/25 03:27:02;;;;;;;7.38;2.25;;;;;;;3.00;100.00;99915.97;4955142;28;20280;-81
2022/02/25 03:29:29;;;;;;;3.72;1.83;;;;;;;3.07;100.00;99922.03;4960729;28;20624;-80
2022/02/25 03:31:56;;;;;;;8.98;2.20;;;;;;;3.05;100.00;99922.09;4963911;28;20235;-80
2022/02/25 03:34:23;;;;;;;4.80;2.00;;;;;;;3.10;100.00;99921.97;4957451;28;20181;-80
2022/02/25 03:36:49;;;;;;;4.95;1.98;;;;;;;3.06;100.00;99926.47;4956794;29;20225;-81
2022/02/25 03:39:16;;;;;;;6.93;2.10;;;;;;;2.92;100.00;99942.75;4956650;28;22583;-81
2022/02/25 03:41:43;;;;;;;6.55;2.33;;;;;;;3.01;100.00;99932.78;4956943;28;20203;-81
2022/02/25 03:44:10;;;;;;;7.00;2.45;;;;;;;3.02;100.00;99935.44;4958932;28;20610;-81
2022/02/25 03:46:38;;;;;;;7.55;2.60;;;;;;;3.17;100.00;99936.03;4957809;28;20583;-81
2022/02/25 03:49:05;;;;;;;5.60;2.20;;;;;;;3.00;100.00;99931.91;4956770;28;20554;-81
2022/02/25 03:51:31;;;;;;;5.07;1.95;;;;;;;3.03;100.00;99934.53;4961784;28;20199;-81
2022/02/25 03:53:58;;;;;;;9.15;2.42;;;;;;;2.94;100.00;99934.75;4956367;28;20203;-81
2022/02/25 03:56:25;;;;;;;8.52;2.90;;;;;;;3.08;100.00;99943.28;4958592;28;20659;-81
2022/02/25 03:58:52;;;;;;;9.35;2.70;;;;;;;3.23;100.00;99935.84;4956742;28;20201;-81
2022/02/25 04:01:19;;;;;;;11.27;2.42;;;;;;;3.28;100.00;99945.50;4955825;28;20216;-81
2022/02/25 04:03:47;;;;;;;7.65;2.50;;;;;;;3.27;100.00;99946.41;4956370;28;20281;-81
2022/02/25 04:06:14;;;;;;;5.25;2.22;;;;;;;3.17;100.00;99941.34;4959253;28;20660;-81
2022/02/25 04:08:40;;;;;;;7.03;2.70;;;;;;;3.15;100.00;99945.81;4955362;28;20282;-81
2022/02/25 04:11:07;;;;;;;6.53;2.30;;;;;;;2.97;100.00;99949.75;4956198;28;20197;-79
2022/02/25 04:13:34;;;;;;;5.43;2.70;;;;;;;2.98;100.00;99954.16;4971035;28;20210;-80
2022/02/25 04:16:00;;;;;;;6.70;2.30;;;;;;;2.93;100.00;99951.59;4959162;28;20286;-80
2022/02/25 04:18:27;;;;;;;10.02;2.65;;;;;;;2.96;100.00;99950.66;4956842;28;20599;-80
2022/02/25 04:20:55;;;;;;;8.68;3.30;;;;;;;2.96;100.00;99951.50;4955985;28;20214;-80
2022/02/25 04:23:22;;;;;;;11.55;2.83;;;;;;;3.00;100.00;99955.88;4955731;28;20560;-80
2022/02/25 04:25:49;;;;;;;8.25;2.10;;;;;;;3.04;100.00;99959.34;4956074;28;20213;-80
2022/02/25 04:28:16;;;;;;;8.30;2.42;;;;;;;3.16;100.00;99963.53;4958056;28;20203;-80
2022/02/25 04:30:43;;;;;;;6.40;2.90;;;;;;;3.18;100.00;99961.72;4954720;28;20237;-79
2022/02/25 04:33:10;;;;;;;6.80;2.92;;;;;;;3.05;100.00;99963.75;4959418;28;20189;-80
2022/02/25 04:35:37;;;;;;;6.22;3.22;;;;;;;3.15;100.00;99959.13;4964963;28;20186;-80
2022/02/25 04:38:05;;;;;;;14.30;3.63;;;;;;;3.16;100.00;99960.84;4957904;28;20225;-80
2022/02/25 04:40:32;;;;;;;18.63;3.10;;;;;;;3.25;100.00;99953.53;4958448;28;20220;-80
2022/02/25 04:42:59;;;;;;;4.90;2.60;;;;;;;3.25;100.00;99952.66;4963332;28;20189;-80
2022/02/25 04:45:25;;;;;;;9.18;3.10;;;;;;;3.06;100.00;99957.53;4969876;28;20307;-80
2022/02/25 04:47:52;;;;;;;8.25;2.75;;;;;;;3.17;100.00;99967.94;4954711;28;20215;-79
2022/02/25 04:50:18;;;;;;;6.60;2.30;;;;;;;3.13;100.00;99965.34;4962751;28;20623;-79
2022/02/25 04:52:45;;;;;;;6.75;4.13;;;;;;;3.13;100.00;99969.78;4962516;28;20747;-80
2022/02/25 04:55:13;;;;;;;9.00;3.15;;;;;;;3.21;100.00;99961.63;4967017;28;20650;-79
2022/02/25 04:57:40;;;;;;;6.07;2.47;;;;;;;3.17;100.00;99960.84;4955310;28;20195;-81
2022/02/25 05:00:10;;;;;;;5.25;2.78;;;;;;;3.06;100.00;99961.06;4958258;28;20240;-82
2022/02/25 05:02:38;;;;;;;7.35;3.05;;;;;;;3.05;100.00;99964.66;4961974;28;20245;-81
2022/02/25 05:05:05;;;;;;;8.20;4.28;;;;;;;3.10;100.00;99968.06;4963612;28;20562;-81
2022/02/25 05:07:32;;;;;;;5.13;2.42;;;;;;;3.00;100.00;99966.50;4961559;28;20280;-82
2022/02/25 05:09:58;;;;;;;7.20;2.67;;;;;;;3.11;100.00;99969.81;4961735;28;20198;-81
2022/02/25 05:12:26;;;;;;;9.77;2.95;;;;;;;2.98;100.00;99973.66;4962052;28;20209;-81
2022/02/25 05:20:28;;;;;;;6.10;2.75;;;;;;;3.02;100.00;99970.00;4959681;28;20413;-82
2022/02/25 05:22:56;;;;;;;6.13;2.95;;;;;;;2.88;100.00;99972.97;4965392;28;20201;-80
2022/02/25 05:25:24;;;;;;;10.80;3.10;;;;;;;2.84;100.00;99978.38;4957143;28;20199;-80
2022/02/25 05:27:54;;;;;;;6.40;2.42;;;;;;;2.82;100.00;99982.84;4957749;28;20189;-81
2022/02/25 05:30:21;;;;;;;11.93;3.92;;;;;;;2.98;100.00;99983.41;4961864;28;20643;-81
2022/02/25 05:32:48;;;;;;;9.00;3.20;;;;;;;2.85;100.00;99996.97;4951284;28;20204;-81
2022/02/25 05:35:16;;;;;;;8.55;3.30;;;;;;;2.87;100.00;99997.84;4964826;28;20193;-80
2022/02/25 05:37:44;;;;;;;9.63;3.80;;;;;;;2.93;100.00;99986.16;4959039;28;20546;-80
2022/02/25 05:40:13;;;;;;;8.23;2.90;;;;;;;2.98;100.00;99986.94;4963524;28;20235;-80
2022/02/25 05:42:41;;;;;;;12.10;3.30;;;;;;;2.94;100.00;99998.59;4958933;28;20635;-81
2022/02/25 05:45:10;;;;;;;7.90;3.22;;;;;;;2.88;100.00;100004.03;4962097;28;20196;-80
2022/02/25 05:47:37;;;;;;;8.77;3.42;;;;;;;2.81;100.00;100008.59;4961948;28;20209;-80
2022/02/25 05:50:07;;;;;;;5.30;3.03;;;;;;;2.74;100.00;100012.28;4961360;28;20590;-80
2022/02/25 05:52:34;;;;;;;8.00;3.30;;;;;;;2.78;100.00;100018.41;4956606;28;20995;-80
2022/02/25 05:55:01;;;;;;;10.07;3.80;;;;;;;2.85;100.00;100014.69;4961075;28;20320;-80
2022/02/25 05:57:28;;;;;;;8.73;3.35;;;;;;;2.84;100.00;100029.78;4962891;28;20188;-79
2022/02/25 05:59:54;;;;;;;7.63;3.55;;;;;;;2.88;100.00;100035.94;4958436;28;20932;-80
2022/02/25 06:02:22;;;;;;;9.10;3.50;;;;;;;2.81;100.00;100039.63;4956834;28;20197;-81
2022/02/25 06:04:50;;;;;;;10.93;3.53;;;;;;;2.88;100.00;100036.81;4953457;28;20195;-81
2022/02/25 06:07:16;;;;;;;7.47;3.05;;;;;;;2.77;100.00;100048.56;4955518;28;20272;-80
2022/02/25 06:09:43;;;;;;;5.15;2.80;;;;;;;2.81;100.00;100052.94;4954537;28;20301;-80
2022/02/25 06:12:10;;;;;;;8.45;3.10;;;;;;;2.76;100.00;100053.00;4960224;28;20989;-80
2022/02/25 06:14:37;;;;;;;8.18;2.90;;;;;;;2.76;100.00;100058.34;4955815;28;20317;-80
2022/02/25 06:17:04;;;;;;;7.28;2.50;;;;;;;2.82;100.00;100054.66;4960933;28;20227;-81
2022/02/25 06:19:32;;;;;;;7.60;3.30;;;;;;;2.77;100.00;100053.88;4957030;28;20189;-81
2022/02/25 06:22:01;;;;;;;8.70;3.10;;;;;;;2.71;100.00;100055.75;4960835;28;20308;-80
2022/02/25 06:24:27;;;;;;;13.05;3.40;;;;;;;2.77;100.00;100064.53;4956121;28;20544;-81
2022/02/25 06:26:54;;;;;;;13.88;4.28;;;;;;;2.76;100.00;100065.41;4960692;28;20222;-81
2022/02/25 06:29:21;;;;;;;17.02;4.93;;;;;;;2.82;100.00;100073.28;4956134;28;20188;-81
2022/02/25 06:31:47;;;;;;;9.00;3.38;;;;;;;2.78;100.00;100076.91;4955013;28;20233;-79
2022/02/25 06:34:14;;;;;;;12.65;4.05;;;;;;;2.93;100.00;100072.16;4964710;28;20599;-81
2022/02/25 06:36:43;;;;;;;8.50;3.25;;;;;;;2.74;100.00;100075.19;4962682;28;20202;-81
2022/02/25 06:39:09;;;;;;;7.15;3.50;;;;;;;2.79;100.00;100081.34;4955533;28;20287;-83
2022/02/25 06:41:36;;;;;;;6.13;2.65;;;;;;;2.93;100.00;100084.59;4958635;28;20566;-82
2022/02/25 06:44:03;;;;;;;9.60;3.38;;;;;;;2.89;100.00;100085.56;4961221;28;20284;-81
2022/02/25 06:46:30;;;;;;;9.85;3.50;;;;;;;2.99;100.00;100089.81;4960842;28;20200;-83
2022/02/25 06:48:56;;;;;;;10.43;3.22;;;;;;;3.08;100.00;100089.63;4956730;28;20192;-81
2022/02/25 06:51:24;;;;;;;8.80;3.00;;;;;;;3.01;100.00;100097.72;4963773;28;20224;-80
2022/02/25 06:53:53;;;;;;;13.27;3.70;;;;;;;3.07;100.00;100101.16;4953935;28;20245;-81
2022/02/25 06:56:20;;;;;;;6.78;2.90;;;;;;;2.98;100.00;100101.34;4950443;28;20198;-82
2022/02/25 06:58:47;;;;;;;6.97;3.20;;;;;;;3.06;100.00;100098.56;4963025;28;20199;-83
2022/02/25 07:01:14;;;;;;;8.23;3.70;;;;;;;3.32;100.00;100106.00;4965039;28;20213;-83
2022/02/25 07:03:40;;;;;;;7.53;3.28;;;;;;;3.45;100.00;100103.97;4964234;28;20538;-83
2022/02/25 07:06:07;;;;;;;10.98;3.33;;;;;;;3.41;100.00;100107.59;4966673;28;20660;-82
2022/02/25 07:08:34;;;;;;;6.53;2.92;;;;;;;3.42;100.00;100106.72;4960068;28;20278;-80
2022/02/25 07:11:02;;;;;;;9.88;3.22;;;;;;;3.38;100.00;100110.34;4960990;28;20288;-80
2022/02/25 07:13:28;;;;;;;7.68;3.03;;;;;;;3.21;100.00;100113.31;4955432;28;20325;-83
2022/02/25 07:15:56;;;;;;;13.70;3.25;;;;;;;3.36;100.00;100112.16;4952653;29;20582;-81
2022/02/25 07:18:22;;;;;;;13.25;3.38;;;;;;;3.30;100.00;100121.13;4952216;28;20208;-80
2022/02/25 07:20:49;;;;;;;8.05;3.38;;;;;;;3.19;100.00;100118.69;4962963;28;20205;-80
2022/02/25 07:23:16;;;;;;;7.03;3.28;;;;;;;3.29;100.00;100122.91;4948686;28;20198;-86
2022/02/25 07:25:43;;;;;;;12.18;4.35;;;;;;;3.29;100.00;100122.91;4934246;29;20197;-82
2022/02/25 07:28:12;;;;;;;8.23;3.50;;;;;;;3.22;100.00;100123.06;4934278;29;20250;-81
2022/02/25 07:30:39;;;;;;;8.85;3.47;;;;;;;3.28;100.00;100120.31;4949607;28;20311;-79
2022/02/25 07:33:05;;;;;;;8.00;3.28;;;;;;;3.18;100.00;100127.56;4940229;29;20196;-81
2022/02/25 07:35:39;;;;;;;9.15;3.53;;;;;;;3.11;100.00;100121.47;4948669;29;20556;-81
2022/02/25 07:38:06;;;;;;;7.93;3.80;;;;;;;3.19;100.00;100120.44;4951251;29;20207;-80
2022/02/25 07:40:32;;;;;;;9.20;3.42;;;;;;;3.34;100.00;100130.81;4933528;29;20216;-80
2022/02/25 07:42:59;;;;;;;9.48;3.70;;;;;;;3.29;100.00;100140.66;4933385;29;20699;-80
2022/02/25 07:45:28;;;;;;;8.40;3.10;;;;;;;3.37;100.00;100129.84;4938333;29;20186;-80
2022/02/25 07:47:55;;;;;;;9.18;3.53;;;;;;;3.23;100.00;100135.47;4952644;29;20202;-80
2022/02/25 07:50:22;;;;;;;12.73;3.60;;;;;;;3.25;100.00;100144.28;4951289;29;20292;-80
2022/02/25 07:52:49;;;;;;;8.55;3.70;;;;;;;3.25;100.00;100144.28;4943029;29;20200;-80
2022/02/25 07:55:16;;;;;;;9.23;3.70;;;;;;;3.34;100.00;100147.63;4949217;29;20213;-80
2022/02/25 07:57:43;;;;;;;14.80;3.08;;;;;;;3.53;100.00;100136.66;4938313;29;20198;-81
2022/02/25 08:00:15;;;;;;;9.55;3.08;;;;;;;3.73;100.00;100134.44;4940256;29;20207;-80
2022/02/25 08:02:44;;;;;;;10.02;3.20;;;;;;;3.83;100.00;100135.09;4942129;29;20209;-80
2022/02/25 08:05:10;;;;;;;10.40;3.80;;;;;;;3.93;100.00;100135.75;4948806;29;20207;-81
2022/02/25 08:07:37;;;;;;;5.95;2.95;;;;;;;4.06;100.00;100149.69;4937912;29;20290;-84
2022/02/25 08:10:05;;;;;;;10.73;3.30;;;;;;;3.88;100.00;100146.53;4956444;29;20656;-82
2022/02/25 08:12:31;;;;;;;8.02;2.90;;;;;;;3.62;100.00;100149.78;4955873;29;20190;-84
2022/02/25 08:14:58;;;;;;;10.05;2.65;;;;;;;3.74;100.00;100156.63;4956392;29;20671;-85
2022/02/25 08:17:25;;;;;;;9.85;3.50;;;;;;;3.79;100.00;100154.72;4947162;29;20238;-83
2022/02/25 08:19:53;;;;;;;9.73;3.20;;;;;;;3.86;100.00;100145.69;4948043;29;20212;-81
2022/02/25 08:22:21;;;;;;;9.43;3.35;;;;;;;3.85;100.00;100140.41;4955625;29;20219;-82
2022/02/25 08:24:47;;;;;;;7.57;3.25;;;;;;;3.85;100.00;100149.28;4954935;29;20592;-83
2022/02/25 08:27:14;;;;;;;9.70;4.00;;;;;;;4.14;100.00;100145.94;4955029;29;20549;-81
2022/02/25 08:29:41;;;;;;;8.75;3.30;;;;;;;4.27;100.00;100146.53;4950667;29;20205;-79
2022/02/25 08:32:08;;;;;;;10.02;3.92;;;;;;;4.42;100.00;100149.75;4967784;28;20225;-79
2022/02/25 08:34:35;;;;;;;9.75;3.25;;;;;;;4.72;100.00;100153.44;4957130;28;20195;-79
2022/02/25 08:37:03;;;;;;;7.95;3.80;;;;;;;4.88;100.00;100162.81;4968962;28;20192;-80
2022/02/25 08:39:30;;;;;;;10.93;3.63;;;;;;;4.99;100.00;100149.19;4970583;28;20568;-81
2022/02/25 08:41:57;;;;;;;13.95;5.72;;;;;;;5.14;100.00;100151.44;4972153;28;20215;-81
2022/02/25 08:44:23;;;;;;;26.02;12.20;;;;;;;5.35;100.00;100155.31;4969530;28;20199;-82
2022/02/25 08:46:50;;;;;;;12.18;3.45;;;;;;;5.17;100.00;100153.16;4963253;28;20706;-82
2022/02/25 08:49:17;;;;;;;8.85;3.28;;;;;;;5.46;100.00;100152.34;4963905;28;20450;-81
2022/02/25 08:51:45;;;;;;;11.52;3.35;;;;;;;5.60;100.00;100154.63;4963167;28;20692;-82
2022/02/25 08:54:13;;;;;;;9.88;3.35;;;;;;;5.68;100.00;100159.78;4961770;28;20196;-81
2022/02/25 08:56:39;;;;;;;11.65;2.72;;;;;;;5.64;100.00;100157.16;4970803;28;20208;-82
2022/02/25 08:59:07;;;;;;;14.98;3.55;;;;;;;5.79;100.00;100155.00;4967766;28;20206;-83
2022/02/25 09:01:34;;;;;;;9.35;3.75;;;;;;;5.76;99.26;100155.06;4956311;28;20252;-82
2022/02/25 09:04:01;;;;;;;7.57;3.53;;;;;;;5.68;99.79;100157.97;4970445;28;20896;-83
2022/02/25 09:06:28;;;;;;;10.13;4.05;;;;;;;6.03;99.11;100156.94;4972389;28;20973;-83
2022/02/25 09:08:55;;;;;;;7.13;3.10;;;;;;;5.94;99.21;100159.88;4973127;28;20251;-83
2022/02/25 09:11:23;;;;;;;9.32;3.78;;;;;;;6.26;96.15;100158.91;4959506;28;20307;-81
2022/02/25 09:13:50;;;;;;;8.45;3.60;;;;;;;6.32;97.00;100159.63;4953847;29;20678;-83
2022/02/25 09:16:17;;;;;;;7.80;3.70;;;;;;;6.33;95.89;100159.59;4966685;28;20319;-83
2022/02/25 09:18:44;;;;;;;10.27;3.58;;;;;;;6.18;96.59;100152.91;4972859;28;21058;-84
2022/02/25 09:21:11;;;;;;;11.73;3.70;;;;;;;6.09;98.36;100153.19;4972469;28;20208;-82
2022/02/25 09:23:38;;;;;;;6.85;3.50;;;;;;;6.24;97.66;100151.84;4972681;28;20718;-83
2022/02/25 09:26:04;;;;;;;9.18;3.45;;;;;;;5.65;99.82;100155.38;4972779;28;20251;-83
2022/02/25 09:28:32;;;;;;;12.80;2.67;;;;;;;5.86;99.45;100151.19;4972839;28;20319;-81
2022/02/25 09:30:59;;;;;;;10.80;3.23;;;;;;;5.97;99.88;100151.78;4933679;28;1146668;-82
2022/02/25 09:33:26;;;;;;;9.50;3.00;;;;;;;6.32;98.00;100157.81;4960303;28;20432;-82
2022/02/25 09:35:52;;;;;;;8.45;2.88;;;;;;;6.35;97.00;100155.03;4955593;28;20260;-81
2022/02/25 09:38:19;;;;;;;7.47;4.22;;;;;;;6.62;95.63;100163.09;4955109;29;20291;-82
2022/02/25 09:40:45;;;;;;;20.60;3.75;;;;;;;6.73;94.18;100155.59;4954421;29;20193;-81
2022/02/25 09:43:12;;;;;;;11.13;4.13;;;;;;;6.59;94.33;100172.13;4954321;29;20316;-82
2022/02/25 09:45:55;;;;;;;6.75;2.50;;;;;;;6.15;95.75;100165.50;4957506;28;20211;-82
2022/02/25 09:48:22;;;;;;;8.73;3.10;;;;;;;5.84;97.93;100158.38;4866443;29;20200;-82
2022/02/25 09:50:51;;;;;;;6.85;3.50;;;;;;;5.77;99.44;100170.19;4857784;29;20235;-80
2022/02/25 09:53:19;;;;;;;10.50;3.03;;;;;;;5.78;99.61;100172.78;4869619;29;20203;-80
2022/02/25 09:55:46;;;;;;;15.52;3.10;;;;;;;5.85;98.30;100170.81;4876231;29;20214;-81
2022/02/25 09:58:13;;;;;;;10.32;2.83;;;;;;;5.80;98.87;100180.78;4862265;29;20196;-80
2022/02/25 10:00:42;;;;;;;8.32;2.17;;;;;;;6.29;96.97;100183.78;4857907;29;20541;-80
2022/02/25 10:03:12;;;;;;;6.35;3.10;;;;;;;6.46;93.98;100195.69;4857341;29;20675;-81
2022/02/25 10:05:39;;;;;;;10.13;3.10;;;;;;;6.26;95.38;100187.44;4872884;29;20214;-81
2022/02/25 10:08:09;;;;;;;8.00;2.97;;;;;;;6.10;95.82;100186.16;4858330;29;20227;-82
2022/02/25 10:10:43;;;;;;;10.65;3.25;;;;;;;5.83;98.57;100189.59;4871848;29;20208;-81
2022/02/25 10:13:10;;;;;;;9.23;3.55;;;;;;;5.94;98.96;100191.97;4861446;29;20623;-83
2022/02/25 10:15:38;;;;;;;9.32;3.63;;;;;;;6.12;98.23;100203.91;4855899;29;20279;-83
2022/02/25 10:18:10;;;;;;;9.63;3.78;;;;;;;5.95;99.22;100204.41;4858057;29;20297;-84
2022/02/25 10:20:37;;;;;;;7.63;3.38;;;;;;;5.90;99.79;100208.09;4872717;29;20263;-83
2022/02/25 10:23:18;;;;;;;5.80;2.72;;;;;;;5.57;100.00;100206.34;4861182;29;20222;-85
2022/02/25 10:25:44;;;;;;;9.25;2.95;;;;;;;5.49;100.00;100213.69;4896736;29;20292;-81
2022/02/25 10:28:11;;;;;;;9.02;3.00;;;;;;;5.75;100.00;100217.44;4952687;29;20207;-81
2022/02/25 10:30:39;;;;;;;9.73;2.60;;;;;;;5.47;100.00;100215.53;4958122;28;20591;-83
2022/02/25 10:33:07;;;;;;;8.77;2.95;;;;;;;5.58;100.00;100213.44;4972331;28;20257;-82
2022/02/25 10:35:36;;;;;;;12.27;3.72;;;;;;;5.63;100.00;100218.66;4959890;28;20283;-82
2022/02/25 10:38:06;;;;;;;6.68;2.60;;;;;;;5.68;100.00;100229.25;4961476;28;20658;-82
2022/02/25 10:40:35;;;;;;;7.28;3.10;;;;;;;5.49;100.00;100232.38;4972270;28;20201;-82
2022/02/25 10:43:02;;;;;;;11.15;3.55;;;;;;;5.31;100.00;100227.53;4972469;28;20307;-81
2022/02/25 10:45:32;;;;;;;9.70;3.55;;;;;;;5.25;100.00;100225.94;4972121;28;20206;-81
2022/02/25 10:48:04;;;;;;;6.45;2.65;;;;;;;5.36;100.00;100228.28;4971226;28;20700;-81
2022/02/25 10:50:43;;;;;;;13.52;2.97;;;;;;;5.38;100.00;100222.03;4972576;28;20316;-81
2022/02/25 10:53:10;;;;;;;11.63;3.10;;;;;;;5.44;100.00;100219.16;4972533;28;20532;-81
2022/02/25 10:55:37;;;;;;;10.70;4.10;;;;;;;5.83;100.00;100215.41;4972625;28;20243;-82
2022/02/25 10:58:04;;;;;;;11.65;2.95;;;;;;;5.91;100.00;100216.09;4972518;28;20311;-82
2022/02/25 11:00:31;;;;;;;9.00;3.40;;;;;;;6.00;100.00;100228.34;4972785;28;20544;-82
2022/02/25 11:03:00;;;;;;;14.13;3.97;;;;;;;5.98;100.00;100220.34;4972153;28;20649;-82
2022/02/25 11:05:29;;;;;;;5.00;3.22;;;;;;;5.95;100.00;100217.78;4972240;28;20603;-82
2022/02/25 11:07:58;;;;;;;7.05;3.15;;;;;;;6.09;100.00;100217.38;4973047;28;20217;-82
2022/02/25 11:10:26;;;;;;;7.70;2.97;;;;;;;6.19;99.24;100208.13;4971541;28;20191;-82
2022/02/25 11:12:54;;;;;;;10.15;4.18;;;;;;;6.33;98.80;100207.75;4972280;28;20202;-82
2022/02/25 11:15:23;;;;;;;10.35;3.75;;;;;;;6.12;99.08;100203.03;4972790;28;20710;-81
2022/02/25 11:17:51;;;;;;;9.23;3.55;;;;;;;6.12;100.00;100211.06;4972170;28;20325;-82
2022/02/25 11:20:22;;;;;;;9.07;3.35;;;;;;;6.19;100.00;100205.47;4975010;28;20532;-82
2022/02/25 11:22:54;;;;;;;8.38;3.00;;;;;;;6.54;97.16;100216.88;4976043;28;20212;-83
2022/02/25 11:25:22;;;;;;;10.32;3.50;;;;;;;6.38;97.96;100215.63;4976533;28;20690;-82
2022/02/25 11:27:49;;;;;;;8.20;2.75;;;;;;;6.21;98.38;100210.78;4975975;28;20243;-82
2022/02/25 11:30:23;;;;;;;9.32;3.42;;;;;;;6.55;97.64;100207.91;4975224;28;20287;-82
2022/02/25 11:32:56;;;;;;;14.45;3.50;;;;;;;6.86;95.08;100212.28;4974772;28;20682;-82
2022/02/25 11:35:26;;;;;;;7.75;3.25;;;;;;;6.98;93.88;100211.88;4948254;28;20203;-82
2022/02/25 11:38:00;;;;;;;9.40;3.38;;;;;;;7.06;92.44;100216.97;4968661;28;20200;-82